Terminal Aerodrome Forecast
Issued by NWS

Home | Current Version | Previous Version | Text Only | Print | Product List | Glossary On
Versions: 1 2 3 4 5 6 7 8 9 10 11 12 13 14 15 16 17 18 19 20 21 22 23 24 25 26 27 28 29 30
000
FTUS41 KRNK 300552 CCA
TAFBCB
TAF COR
KBCB 300552Z 3006/3106 21004KT P6SM OVC130
     FM300800 24006KT P6SM OVC040
     FM301300 28011G21KT P6SM SCT025 BKN035
      TEMPO 3013/3015 P6SM -RA
     FM301700 29014G26KT P6SM SCT035
     FM302300 28005KT P6SM SCT250=

USA.gov is the U.S. government's official web portal to all federal, state and local government web resources and services.